JOHN F KENNEDY INTL

KJFK (JFK)
New York, New York
Towered

Vatsim Metar:
KJFK 131951Z 35012G18KT 10SM FEW050 FEW250 17/04 A3002 RMK AO2 SLP166 T01720044